Time;durP1;ratioP1;P1;durP2;ratioP2;P2;SDS_P1;SDS_P2;PMS_P1;PMS_P2;Temp;Humidity;BMP_temperature;BMP_pressure;BME280_temperature;BME280_humidity;BME280_pressure;Samples;Min_cycle;Max_cycle;Signal;HPM_P1;HPM_P2
2021/11/30 00:03:00;;;;;;;0.20;0.10;;;8.10;99.90;;;;;;20737835;28;20552;-75
2021/11/30 00:13:05;;;;;;;0.20;0.10;;;8.10;99.90;;;;;;20738787;28;20317;-76
2021/11/30 00:23:09;;;;;;;0.20;0.10;;;7.90;99.90;;;;;;20752758;28;20317;-77
2021/11/30 00:33:14;;;;;;;0.20;0.10;;;7.80;99.90;;;;;;20737224;28;20230;-76
2021/11/30 00:43:21;;;;;;;0.20;0.10;;;7.60;99.90;;;;;;20747023;28;20222;-77
2021/11/30 00:53:26;;;;;;;0.20;0.10;;;7.40;99.90;;;;;;20793025;28;20234;-77
2021/11/30 01:03:29;;;;;;;0.20;0.10;;;7.50;99.90;;;;;;20795419;23;20230;-72
2021/11/30 01:13:35;;;;;;;0.20;0.10;;;7.70;99.90;;;;;;20832449;28;20253;-71
2021/11/30 01:23:38;;;;;;;7.93;7.40;;;7.70;99.90;;;;;;20832343;28;20574;-71
2021/11/30 01:33:43;;;;;;;0.20;0.10;;;7.70;99.90;;;;;;20830507;28;20250;-71
2021/11/30 01:43:48;;;;;;;0.20;0.10;;;7.70;99.90;;;;;;20831789;28;20222;-73
2021/11/30 01:53:55;;;;;;;0.20;0.10;;;7.50;99.90;;;;;;20830829;28;20250;-71
2021/11/30 02:03:59;;;;;;;0.20;0.10;;;7.30;99.90;;;;;;20842096;22;20679;-69
2021/11/30 02:14:05;;;;;;;0.20;0.10;;;7.20;99.90;;;;;;20827353;28;20733;-68
2021/11/30 02:24:10;;;;;;;0.20;0.10;;;7.10;99.90;;;;;;20827159;28;20293;-68
2021/11/30 02:34:15;;;;;;;0.20;0.10;;;7.10;99.90;;;;;;20826861;28;20229;-69
2021/11/30 02:44:23;;;;;;;0.20;0.10;;;7.10;99.90;;;;;;20825247;28;20739;-67
2021/11/30 02:54:26;;;;;;;0.20;0.10;;;7.10;99.90;;;;;;20825574;28;20332;-67
2021/11/30 03:04:33;;;;;;;0.20;0.10;;;7.20;99.90;;;;;;20825603;28;20571;-67
2021/11/30 03:14:37;;;;;;;0.20;0.10;;;7.20;99.90;;;;;;20824256;28;20535;-67
2021/11/30 03:24:42;;;;;;;0.20;0.10;;;7.20;99.90;;;;;;20822902;28;20281;-67
2021/11/30 03:34:46;;;;;;;0.20;0.10;;;7.30;99.90;;;;;;20820324;28;20222;-68
2021/11/30 03:44:51;;;;;;;0.83;0.83;;;7.50;99.90;;;;;;20821972;28;20254;-68
2021/11/30 03:54:54;;;;;;;0.20;0.10;;;7.50;99.90;;;;;;20821388;28;20260;-68
2021/11/30 04:04:59;;;;;;;0.20;0.10;;;7.60;99.90;;;;;;20821217;28;20638;-69
2021/11/30 04:15:03;;;;;;;0.20;0.10;;;7.60;99.90;;;;;;20819115;28;20622;-67
2021/11/30 04:25:11;;;;;;;0.20;0.10;;;8.30;99.90;;;;;;20817731;28;20198;-68
2021/11/30 04:35:15;;;;;;;0.20;0.10;;;9.10;99.90;;;;;;20816517;28;20583;-68
2021/11/30 04:45:24;;;;;;;0.20;0.10;;;8.80;99.90;;;;;;20818374;28;20198;-68
2021/11/30 04:55:30;;;;;;;0.20;0.10;;;8.70;99.90;;;;;;20818182;28;20304;-69
2021/11/30 05:05:35;;;;;;;0.20;0.10;;;9.10;99.90;;;;;;20831004;22;20245;-77
2021/11/30 05:15:39;;;;;;;0.20;0.10;;;9.50;99.90;;;;;;20817995;28;20226;-77
2021/11/30 05:25:44;;;;;;;0.20;0.10;;;9.60;99.90;;;;;;20817963;28;20194;-78
2021/11/30 05:35:48;;;;;;;0.20;0.10;;;9.70;99.90;;;;;;20814897;28;20321;-78
2021/11/30 05:45:55;;;;;;;0.20;0.10;;;9.80;99.90;;;;;;20816864;28;20198;-78
2021/11/30 05:56:01;;;;;;;0.20;0.10;;;9.60;99.90;;;;;;20823811;28;20229;-77
2021/11/30 06:06:06;;;;;;;0.20;0.10;;;9.90;99.90;;;;;;20809291;28;20222;-76
2021/11/30 06:16:10;;;;;;;0.20;0.10;;;9.80;99.90;;;;;;20827957;28;20309;-76
2021/11/30 06:26:16;;;;;;;0.20;0.10;;;9.80;99.90;;;;;;20828549;28;20721;-79
2021/11/30 06:36:19;;;;;;;0.20;0.10;;;9.60;99.90;;;;;;20829086;28;20240;-76
2021/11/30 06:46:24;;;;;;;0.20;0.10;;;9.70;99.90;;;;;;20829075;28;20209;-78
2021/11/30 06:56:28;;;;;;;0.20;0.10;;;9.70;99.90;;;;;;20829467;28;20232;-78
2021/11/30 07:06:40;;;;;;;0.20;0.10;;;9.70;99.90;;;;;;20823498;28;20317;-78
2021/11/30 07:16:45;;;;;;;0.20;0.10;;;9.50;99.90;;;;;;20865839;28;20225;-80
2021/11/30 07:26:51;;;;;;;0.20;0.10;;;9.50;99.90;;;;;;20827753;28;20213;-80
2021/11/30 07:37:16;;;;;;;0.20;0.10;;;9.60;99.90;;;;;;20825175;28;20226;-79
2021/11/30 07:47:21;;;;;;;0.20;0.10;;;9.90;99.90;;;;;;20823847;28;20194;-77
2021/11/30 07:57:26;;;;;;;0.20;0.10;;;10.20;99.90;;;;;;20820685;28;20713;-77
2021/11/30 08:07:31;;;;;;;0.20;0.10;;;10.50;99.90;;;;;;20815920;28;20257;-74
2021/11/30 08:17:35;;;;;;;0.20;0.20;;;10.80;99.90;;;;;;20816048;28;20308;-75
2021/11/30 08:27:40;;;;;;;0.20;0.10;;;10.80;99.90;;;;;;20817079;28;20282;-73
2021/11/30 08:37:44;;;;;;;0.20;0.10;;;10.80;99.90;;;;;;20816830;28;20230;-74
2021/11/30 08:47:49;;;;;;;0.20;0.10;;;10.80;99.90;;;;;;20799318;28;20754;-75
2021/11/30 08:57:54;;;;;;;0.20;0.10;;;11.10;99.90;;;;;;20816272;28;20679;-74
2021/11/30 09:07:59;;;;;;;0.20;0.10;;;11.70;99.90;;;;;;20805005;28;20226;-74
2021/11/30 09:18:03;;;;;;;0.20;0.10;;;11.50;99.90;;;;;;20798965;28;20762;-74
2021/11/30 09:28:08;;;;;;;0.20;0.10;;;12.10;99.90;;;;;;20781244;28;20198;-74
2021/11/30 09:38:11;;;;;;;0.20;0.10;;;12.40;99.90;;;;;;20745391;28;20219;-74
2021/11/30 09:48:16;;;;;;;0.20;0.10;;;13.00;99.90;;;;;;20734216;28;20203;-73
2021/11/30 09:58:22;;;;;;;0.20;0.10;;;13.00;99.90;;;;;;20731366;28;20237;-75
2021/11/30 10:08:31;;;;;;;0.20;0.10;;;12.80;99.90;;;;;;20785897;28;20233;-76
2021/11/30 10:18:44;;;;;;;0.97;0.97;;;12.70;99.90;;;;;;20781341;28;20222;-78
2021/11/30 10:28:55;;;;;;;0.20;0.10;;;13.20;99.90;;;;;;22325862;22;20320;-66
2021/11/30 10:38:59;;;;;;;0.20;0.10;;;13.00;99.90;;;;;;20749447;28;20217;-67
2021/11/30 10:49:05;;;;;;;0.20;0.10;;;13.20;99.90;;;;;;20810254;28;20198;-67
2021/11/30 10:59:15;;;;;;;0.20;0.10;;;13.20;99.90;;;;;;20807388;28;20308;-68
2021/11/30 11:09:38;;;;;;;0.20;0.10;;;15.50;99.90;;;;;;20810431;28;20199;-68
2021/11/30 11:19:44;;;;;;;0.20;0.10;;;14.30;99.90;;;;;;20809978;28;20292;-69
2021/11/30 11:29:49;;;;;;;0.20;0.10;;;15.00;99.90;;;;;;20724262;28;20547;-69
2021/11/30 11:39:54;;;;;;;0.20;0.10;;;15.30;99.90;;;;;;20724793;28;20261;-70
2021/11/30 11:50:11;;;;;;;0.20;0.00;;;16.00;99.90;;;;;;20776808;28;20671;-67
2021/11/30 12:00:18;;;;;;;0.20;0.10;;;16.00;99.90;;;;;;20804474;28;20217;-68
2021/11/30 12:10:26;;;;;;;0.20;0.10;;;16.50;99.90;;;;;;20786723;28;20663;-68
2021/11/30 12:20:44;;;;;;;0.20;0.10;;;17.80;99.90;;;;;;20804004;28;20221;-67
2021/11/30 12:30:52;;;;;;;0.20;0.10;;;17.30;99.90;;;;;;20802786;28;20533;-66
2021/11/30 12:40:57;;;;;;;0.20;0.10;;;16.30;99.90;;;;;;20802788;28;20325;-67
2021/11/30 12:51:24;;;;;;;0.20;0.10;;;16.20;99.90;;;;;;20802237;28;20208;-68
2021/11/30 13:01:28;;;;;;;0.20;0.10;;;16.60;99.90;;;;;;20807741;28;20221;-70
2021/11/30 13:11:35;;;;;;;0.20;0.00;;;16.20;99.90;;;;;;20818008;28;20253;-64
2021/11/30 13:21:42;;;;;;;0.20;0.10;;;15.50;99.90;;;;;;20815709;28;20258;-67
2021/11/30 13:31:47;;;;;;;0.20;0.10;;;17.50;99.90;;;;;;20810314;28;20297;-71
2021/11/30 13:41:51;;;;;;;0.20;0.10;;;17.40;99.90;;;;;;20810157;28;20295;-68
2021/11/30 13:51:57;;;;;;;0.20;0.10;;;19.10;99.90;;;;;;20815832;28;20996;-69
2021/11/30 14:02:01;;;;;;;0.20;0.10;;;19.30;99.90;;;;;;20814106;28;20338;-69
2021/11/30 14:12:15;;;;;;;0.20;0.10;;;19.70;99.90;;;;;;20812211;28;20198;-67
2021/11/30 14:22:21;;;;;;;0.20;0.10;;;20.00;99.90;;;;;;20817168;28;20222;-69
2021/11/30 14:32:28;;;;;;;0.20;0.00;;;20.10;99.90;;;;;;20825389;28;20317;-68
2021/11/30 14:42:35;;;;;;;0.20;0.00;;;17.80;99.90;;;;;;20823952;28;20280;-70
2021/11/30 14:52:42;;;;;;;0.20;0.10;;;16.80;99.90;;;;;;20822646;28;20289;-68
2021/11/30 15:03:02;;;;;;;0.20;0.00;;;16.90;99.90;;;;;;20820545;28;20236;-68
2021/11/30 15:13:11;;;;;;;0.20;0.10;;;16.60;99.90;;;;;;20809230;28;20280;-68
2021/11/30 15:23:15;;;;;;;0.20;0.10;;;17.80;99.90;;;;;;20806280;28;20554;-67
2021/11/30 15:33:22;;;;;;;0.20;0.00;;;17.80;99.90;;;;;;20821809;28;20794;-69
2021/11/30 15:43:26;;;;;;;0.30;0.23;;;16.10;99.90;;;;;;20805035;28;20285;-68
2021/11/30 15:53:32;;;;;;;0.20;0.10;;;15.10;99.90;;;;;;20801412;28;20286;-66
2021/11/30 16:03:35;;;;;;;0.20;0.10;;;14.10;99.90;;;;;;20801358;28;20233;-67
2021/11/30 16:13:43;;;;;;;0.20;0.10;;;13.60;99.90;;;;;;20800185;28;20194;-68
2021/11/30 16:23:47;;;;;;;0.20;0.10;;;13.30;99.90;;;;;;20794527;28;20237;-68
2021/11/30 16:33:52;;;;;;;0.20;0.20;;;13.10;99.90;;;;;;20797994;28;20264;-67
2021/11/30 16:43:56;;;;;;;0.20;0.10;;;12.30;99.90;;;;;;20798844;28;20190;-71
2021/11/30 16:54:01;;;;;;;0.20;0.10;;;11.70;99.90;;;;;;20801915;28;20539;-66
2021/11/30 17:04:05;;;;;;;0.20;0.10;;;11.30;99.90;;;;;;20800874;28;20765;-66
2021/11/30 17:14:10;;;;;;;0.20;0.10;;;11.00;99.90;;;;;;20798639;28;20253;-68
2021/11/30 17:24:17;;;;;;;0.20;0.10;;;10.80;99.90;;;;;;20800385;28;20285;-69
2021/11/30 17:34:39;;;;;;;0.20;0.10;;;10.50;99.90;;;;;;20799446;28;20317;-68
2021/11/30 17:45:15;;;;;;;0.20;0.00;;;10.30;99.90;;;;;;20799235;28;20240;-69
2021/11/30 17:55:21;;;;;;;0.20;0.10;;;10.00;99.90;;;;;;20806066;28;20237;-68
2021/11/30 18:05:26;;;;;;;0.20;0.10;;;10.10;99.90;;;;;;20825976;28;20201;-68
2021/11/30 18:15:47;;;;;;;0.20;0.10;;;10.00;99.90;;;;;;20823977;28;20214;-69
2021/11/30 18:25:51;;;;;;;0.20;0.10;;;9.90;99.90;;;;;;20824999;28;20295;-68
2021/11/30 18:35:56;;;;;;;0.20;0.10;;;9.70;99.90;;;;;;20822998;28;20712;-68
2021/11/30 18:45:59;;;;;;;0.93;0.93;;;9.60;99.90;;;;;;20825534;28;20198;-67
2021/11/30 18:56:05;;;;;;;0.20;0.10;;;9.60;99.90;;;;;;20824132;28;20245;-67
2021/11/30 19:06:09;;;;;;;0.20;0.10;;;9.50;99.90;;;;;;20818869;28;20277;-68
2021/11/30 19:16:14;;;;;;;0.20;0.10;;;9.40;99.90;;;;;;20816028;28;20225;-68
2021/11/30 19:26:18;;;;;;;0.20;0.10;;;9.20;99.90;;;;;;20816734;28;20687;-68
2021/11/30 19:36:24;;;;;;;0.20;0.10;;;9.20;99.90;;;;;;20810445;28;20222;-65
2021/11/30 19:46:29;;;;;;;0.20;0.10;;;9.20;99.90;;;;;;20812287;28;20655;-68
2021/11/30 19:56:38;;;;;;;0.20;0.00;;;9.20;99.90;;;;;;20815388;28;20221;-70
2021/11/30 20:06:41;;;;;;;0.20;0.10;;;9.00;99.90;;;;;;20813215;28;20194;-69
2021/11/30 20:16:48;;;;;;;0.20;0.10;;;9.20;99.90;;;;;;20813299;28;20245;-68
2021/11/30 20:26:52;;;;;;;1.80;1.70;;;9.00;99.90;;;;;;20814950;28;20452;-68
2021/11/30 20:47:22;;;;;;;0.30;0.30;;;8.90;99.90;;;;;;20814215;28;20197;-70
2021/11/30 20:57:28;;;;;;;0.20;0.10;;;9.00;99.90;;;;;;20814557;28;20226;-69
2021/11/30 21:07:33;;;;;;;0.20;0.10;;;9.10;99.90;;;;;;20795303;28;20202;-71
2021/11/30 21:17:41;;;;;;;0.20;0.10;;;9.20;99.90;;;;;;20813117;28;20317;-69
2021/11/30 21:27:46;;;;;;;0.20;0.10;;;9.70;99.90;;;;;;20824970;28;20244;-70
2021/11/30 21:37:53;;;;;;;0.20;0.10;;;9.80;99.90;;;;;;20823335;28;20753;-71
2021/11/30 21:47:57;;;;;;;0.20;0.10;;;9.60;99.90;;;;;;20791347;28;20211;-70
2021/11/30 21:58:03;;;;;;;0.20;0.10;;;9.60;99.90;;;;;;20744161;28;20223;-69
2021/11/30 22:08:08;;;;;;;0.20;0.10;;;9.90;99.90;;;;;;20743351;28;20194;-73
2021/11/30 22:18:13;;;;;;;0.20;0.20;;;9.60;99.90;;;;;;20804563;28;20301;-69
2021/11/30 22:28:17;;;;;;;0.20;0.10;;;9.50;99.90;;;;;;20825629;28;20230;-70
2021/11/30 22:38:22;;;;;;;0.20;0.10;;;9.50;99.90;;;;;;20824015;28;20225;-69
2021/11/30 22:48:27;;;;;;;0.20;0.10;;;9.50;99.90;;;;;;20826064;28;20202;-68
2021/11/30 22:58:33;;;;;;;0.20;0.10;;;9.30;99.90;;;;;;20821972;28;20237;-67
2021/11/30 23:08:37;;;;;;;0.20;0.10;;;9.30;99.90;;;;;;20820737;28;20194;-68
2021/11/30 23:18:42;;;;;;;0.20;0.10;;;9.20;99.90;;;;;;20820978;28;20268;-68
2021/11/30 23:28:53;;;;;;;0.20;0.10;;;8.90;99.90;;;;;;20821993;28;20873;-69
2021/11/30 23:39:00;;;;;;;0.20;0.10;;;8.90;99.90;;;;;;20820551;28;20233;-69
2021/11/30 23:49:05;;;;;;;0.20;0.10;;;8.90;99.90;;;;;;20821572;28;20194;-69
2021/11/30 23:59:09;;;;;;;0.20;0.10;;;8.80;99.90;;;;;;20818844;28;20226;-69
